Time;durP1;ratioP1;P1;durP2;ratioP2;P2;SDS_P1;SDS_P2;PMS_P1;PMS_P2;Temp;Humidity;BMP_temperature;BMP_pressure;BME280_temperature;BME280_humidity;BME280_pressure;Samples;Min_cycle;Max_cycle;Signal;HPM_P1;HPM_P2
2022/10/19 00:01:02;;;;;;;;;;;;;;;12.18;87.66;100960.60;85986;1292;81659;-54
2022/10/19 00:03:10;;;;;;;;;;;;;;;12.14;87.79;100962.61;85984;1294;81666;-54
2022/10/19 00:05:20;;;;;;;;;;;;;;;12.07;87.55;100960.63;85993;1292;99561;-58
2022/10/19 00:07:27;;;;;;;;;;;;;;;11.99;87.60;100954.76;85971;1294;88371;-57
2022/10/19 00:09:35;;;;;;;;;;;;;;;11.92;87.70;100959.15;85966;1294;93901;-54
2022/10/19 00:11:46;;;;;;;;;;;;;;;11.84;87.71;100959.23;85961;1294;80363;-53
2022/10/19 00:13:54;;;;;;;;;;;;;;;11.76;87.70;100958.52;85995;1294;82312;-56
2022/10/19 00:16:01;;;;;;;;;;;;;;;11.68;87.58;100957.73;86009;1297;97975;-57
2022/10/19 00:18:08;;;;;;;;;;;;;;;11.61;87.50;100956.23;85967;1294;88227;-57
2022/10/19 00:20:15;;;;;;;;;;;;;;;11.53;87.59;100952.34;86054;1294;93920;-58
2022/10/19 00:22:22;;;;;;;;;;;;;;;11.47;87.61;100953.03;86064;1294;81518;-57
2022/10/19 00:24:29;;;;;;;;;;;;;;;11.44;87.76;100948.66;86041;1294;81773;-53
2022/10/19 00:26:36;;;;;;;;;;;;;;;11.41;87.76;100948.89;86018;1292;99946;-53
2022/10/19 00:28:43;;;;;;;;;;;;;;;11.36;87.71;100949.96;86066;1293;88402;-53
2022/10/19 00:30:51;;;;;;;;;;;;;;;11.32;87.71;100949.02;86057;1297;95449;-57
2022/10/19 00:32:58;;;;;;;;;;;;;;;11.30;87.76;100949.69;86009;1297;81484;-57
2022/10/19 00:35:09;;;;;;;;;;;;;;;11.24;87.65;100947.80;86035;1293;82752;-56
2022/10/19 00:37:15;;;;;;;;;;;;;;;11.17;87.50;100948.48;86019;1294;99307;-56
2022/10/19 00:39:24;;;;;;;;;;;;;;;11.10;87.41;100949.32;86001;1299;85937;-54
2022/10/19 00:41:34;;;;;;;;;;;;;;;11.02;87.32;100950.72;85971;1297;93840;-53
2022/10/19 00:43:57;;;;;;;;;;;;;;;10.92;87.18;100947.14;85988;1288;80741;-53
2022/10/19 00:46:05;;;;;;;;;;;;;;;10.81;87.23;100945.00;85972;1299;82938;-50
2022/10/19 00:48:16;;;;;;;;;;;;;;;10.77;87.26;100949.92;85959;1294;99153;-55
2022/10/19 00:50:26;;;;;;;;;;;;;;;10.73;87.12;100951.20;85993;1294;86320;-53
2022/10/19 00:52:35;;;;;;;;;;;;;;;10.67;87.27;100953.08;85953;1294;94624;-52
2022/10/19 00:54:44;;;;;;;;;;;;;;;10.61;87.22;100950.36;85972;1294;82294;-54
2022/10/19 00:56:53;;;;;;;;;;;;;;;10.55;87.41;100947.68;85948;1298;82429;-56
2022/10/19 00:59:01;;;;;;;;;;;;;;;10.50;87.44;100949.85;85965;1294;100033;-57
2022/10/19 01:01:10;;;;;;;;;;;;;;;10.45;87.48;100949.91;85962;1294;88462;-57
2022/10/19 01:03:17;;;;;;;;;;;;;;;10.40;87.64;100949.92;85980;1292;95161;-58
2022/10/19 01:05:24;;;;;;;;;;;;;;;10.41;87.78;100943.91;86025;1293;81802;-58
2022/10/19 01:07:31;;;;;;;;;;;;;;;10.46;87.85;100941.52;86032;1285;80887;-57
2022/10/19 01:09:39;;;;;;;;;;;;;;;10.51;88.14;100941.36;86033;1294;98507;-55
2022/10/19 01:11:52;;;;;;;;;;;;;;;10.59;88.38;100940.66;86052;1298;88019;-55
2022/10/19 01:14:13;;;;;;;;;;;;;;;10.67;88.54;100936.66;86030;1294;93366;-55
2022/10/19 01:16:25;;;;;;;;;;;;;;;10.73;88.69;100928.93;85996;1297;81133;-56
2022/10/19 01:18:40;;;;;;;;;;;;;;;10.83;88.82;100931.20;86012;1294;82858;-56
2022/10/19 01:21:23;;;;;;;;;;;;;;;10.92;88.85;100926.05;86018;1294;98144;-55
2022/10/19 01:24:06;;;;;;;;;;;;;;;10.99;88.93;100920.63;85904;1294;88288;-55
2022/10/19 01:26:25;;;;;;;;;;;;;;;11.04;88.98;100924.04;85874;1284;95358;-55
2022/10/19 01:28:44;;;;;;;;;;;;;;;11.07;89.02;100917.20;85962;1294;82324;-55
2022/10/19 01:30:56;;;;;;;;;;;;;;;11.10;88.99;100923.16;86019;1293;80771;-57
2022/10/19 01:33:19;;;;;;;;;;;;;;;11.12;88.92;100916.92;85973;1294;97026;-56
2022/10/19 01:35:32;;;;;;;;;;;;;;;11.14;88.92;100910.39;86004;1293;88473;-53
2022/10/19 01:37:47;;;;;;;;;;;;;;;11.12;88.96;100907.76;85973;1293;95661;-54
2022/10/19 01:39:58;;;;;;;;;;;;;;;11.09;88.90;100904.02;85979;1294;82346;-55
2022/10/19 01:42:10;;;;;;;;;;;;;;;11.08;88.78;100903.40;86004;1298;83329;-56
2022/10/19 01:44:22;;;;;;;;;;;;;;;11.04;88.70;100901.13;85932;1294;99771;-56
2022/10/19 01:46:34;;;;;;;;;;;;;;;10.98;88.65;100904.94;85995;1299;86967;-54
2022/10/19 01:48:45;;;;;;;;;;;;;;;10.94;88.68;100905.05;85996;1292;95079;-55
2022/10/19 01:50:55;;;;;;;;;;;;;;;10.86;88.60;100902.36;85999;1297;80114;-55
2022/10/19 01:53:04;;;;;;;;;;;;;;;10.83;88.86;100903.14;85992;1294;83255;-54
2022/10/19 01:55:14;;;;;;;;;;;;;;;10.86;88.92;100898.48;85984;1292;98503;-46
2022/10/19 01:57:24;;;;;;;;;;;;;;;10.93;89.01;100894.89;85977;1293;88655;-53
2022/10/19 01:59:33;;;;;;;;;;;;;;;10.99;89.13;100892.34;86029;1296;95193;-55
2022/10/19 02:01:44;;;;;;;;;;;;;;;11.02;89.03;100887.83;86060;1299;82260;-56
2022/10/19 02:03:53;;;;;;;;;;;;;;;11.04;89.03;100886.48;86090;1294;81696;-55
2022/10/19 02:06:00;;;;;;;;;;;;;;;11.07;89.04;100885.09;86037;1292;100187;-57
2022/10/19 02:08:11;;;;;;;;;;;;;;;11.06;89.08;100887.60;86024;1292;89327;-58
2022/10/19 02:10:19;;;;;;;;;;;;;;;11.06;89.12;100883.20;86001;1294;95693;-53
2022/10/19 02:12:28;;;;;;;;;;;;;;;11.09;89.16;100887.08;85994;1299;82777;-53
2022/10/19 02:14:39;;;;;;;;;;;;;;;11.09;89.24;100884.63;85891;1295;84212;-54
2022/10/19 02:16:49;;;;;;;;;;;;;;;11.15;89.14;100882.02;86008;1297;99752;-55
2022/10/19 02:18:58;;;;;;;;;;;;;;;11.19;89.18;100881.17;86016;1294;88565;-54
2022/10/19 02:21:08;;;;;;;;;;;;;;;11.16;89.34;100877.92;85976;1299;94839;-53
2022/10/19 02:23:16;;;;;;;;;;;;;;;11.17;89.29;100874.40;85918;1294;84242;-53
2022/10/19 02:25:23;;;;;;;;;;;;;;;11.17;89.27;100876.29;86004;1293;82505;-56
2022/10/19 02:27:33;;;;;;;;;;;;;;;11.19;89.33;100875.22;85989;1291;99340;-53
2022/10/19 02:29:41;;;;;;;;;;;;;;;11.16;89.26;100880.98;85999;1294;88423;-56
2022/10/19 02:31:48;;;;;;;;;;;;;;;11.17;89.26;100877.81;86031;1293;94081;-55
2022/10/19 02:33:56;;;;;;;;;;;;;;;11.15;89.21;100871.09;86016;1278;81150;-56
2022/10/19 02:36:03;;;;;;;;;;;;;;;11.14;89.23;100871.41;86023;1284;83136;-54
2022/10/19 02:38:12;;;;;;;;;;;;;;;11.11;88.97;100871.09;86045;1294;98269;-58
2022/10/19 02:40:22;;;;;;;;;;;;;;;11.06;89.03;100868.09;86026;1292;88700;-54
2022/10/19 02:42:34;;;;;;;;;;;;;;;11.01;89.03;100862.05;86017;1293;93814;-54
2022/10/19 02:44:48;;;;;;;;;;;;;;;10.95;89.01;100858.98;86036;1292;82795;-52
2022/10/19 02:46:58;;;;;;;;;;;;;;;10.86;88.92;100862.52;86040;1294;80110;-53
2022/10/19 02:49:07;;;;;;;;;;;;;;;10.81;88.96;100863.23;86036;1297;99409;-55
2022/10/19 02:51:32;;;;;;;;;;;;;;;10.76;88.94;100869.52;86024;1294;86853;-55
2022/10/19 02:53:40;;;;;;;;;;;;;;;10.66;89.05;100871.29;86040;1299;95391;-51
2022/10/19 02:55:47;;;;;;;;;;;;;;;10.64;89.05;100869.47;85998;1294;81871;-54
2022/10/19 02:57:54;;;;;;;;;;;;;;;10.62;89.02;100866.86;85978;1291;81124;-55
2022/10/19 03:00:02;;;;;;;;;;;;;;;10.57;89.01;100868.70;86029;1293;99916;-57
2022/10/19 03:02:09;;;;;;;;;;;;;;;10.52;88.94;100867.83;86036;1297;88885;-53
2022/10/19 03:04:17;;;;;;;;;;;;;;;10.48;88.95;100866.87;86010;1294;93298;-56
2022/10/19 03:06:24;;;;;;;;;;;;;;;10.44;89.06;100867.13;85974;1293;81405;-57
2022/10/19 03:08:30;;;;;;;;;;;;;;;10.41;89.13;100864.77;85961;1294;82708;-57
2022/10/19 03:10:38;;;;;;;;;;;;;;;10.41;89.15;100864.11;85996;1291;98560;-56
2022/10/19 03:12:45;;;;;;;;;;;;;;;10.38;89.13;100861.89;86007;1285;86612;-57
2022/10/19 03:14:53;;;;;;;;;;;;;;;10.34;89.21;100862.05;85997;1293;95029;-61
2022/10/19 03:17:00;;;;;;;;;;;;;;;10.35;89.16;100860.56;85996;1298;82637;-52
2022/10/19 03:19:08;;;;;;;;;;;;;;;10.35;89.28;100859.45;86020;1291;82605;-56
2022/10/19 03:21:15;;;;;;;;;;;;;;;10.37;89.31;100856.52;86014;1297;97542;-57
2022/10/19 03:23:22;;;;;;;;;;;;;;;10.35;89.51;100858.74;86040;1292;89235;-56
2022/10/19 03:25:29;;;;;;;;;;;;;;;10.36;89.46;100861.26;86020;1291;94779;-54
2022/10/19 03:27:36;;;;;;;;;;;;;;;10.35;89.49;100861.98;86037;1293;80371;-54
2022/10/19 03:29:43;;;;;;;;;;;;;;;10.37;89.47;100860.59;86031;1294;82474;-56
2022/10/19 03:31:50;;;;;;;;;;;;;;;10.39;89.55;100856.61;85978;1293;98034;-55
2022/10/19 03:33:57;;;;;;;;;;;;;;;10.41;89.64;100859.03;86006;1294;88721;-54
2022/10/19 03:36:23;;;;;;;;;;;;;;;10.45;89.59;100856.43;85963;1298;92604;-54
2022/10/19 03:38:29;;;;;;;;;;;;;;;10.45;89.67;100853.50;85982;1299;82398;-55
2022/10/19 03:40:37;;;;;;;;;;;;;;;10.46;89.70;100854.21;85950;1293;80474;-53
2022/10/19 03:42:46;;;;;;;;;;;;;;;10.49;89.74;100853.59;85936;1284;99593;-53
2022/10/19 03:44:54;;;;;;;;;;;;;;;10.50;89.79;100852.36;85981;1293;87920;-54
2022/10/19 03:47:01;;;;;;;;;;;;;;;10.53;89.76;100847.55;85935;1299;93574;-55
2022/10/19 03:49:10;;;;;;;;;;;;;;;10.56;89.75;100847.88;85937;1294;82288;-56
2022/10/19 03:51:18;;;;;;;;;;;;;;;10.57;89.80;100841.83;85999;1293;82082;-57
2022/10/19 03:53:25;;;;;;;;;;;;;;;10.59;90.00;100837.35;85970;1299;99089;-57
2022/10/19 03:55:33;;;;;;;;;;;;;;;10.57;89.95;100838.95;85972;1294;87568;-53
2022/10/19 03:57:40;;;;;;;;;;;;;;;10.58;89.89;100839.52;85973;1292;94889;-53
2022/10/19 03:59:48;;;;;;;;;;;;;;;10.62;89.89;100837.96;85954;1294;81086;-55
2022/10/19 04:01:55;;;;;;;;;;;;;;;10.65;89.88;100836.98;86001;1297;82598;-55
2022/10/19 04:04:04;;;;;;;;;;;;;;;10.67;89.93;100838.55;85986;1284;98351;-53
2022/10/19 04:06:14;;;;;;;;;;;;;;;10.70;89.82;100838.95;85965;1294;88233;-53
2022/10/19 04:08:21;;;;;;;;;;;;;;;10.71;89.84;100838.80;86057;1299;94941;-53
2022/10/19 04:10:31;;;;;;;;;;;;;;;10.74;89.78;100842.23;86032;1292;80640;-57
2022/10/19 04:12:38;;;;;;;;;;;;;;;10.70;89.86;100839.65;86053;1292;82837;-57
2022/10/19 04:14:45;;;;;;;;;;;;;;;10.67;89.91;100837.44;86023;1292;99753;-55
2022/10/19 04:16:52;;;;;;;;;;;;;;;10.66;89.83;100836.46;85969;1294;89333;-55
2022/10/19 04:18:59;;;;;;;;;;;;;;;10.70;89.88;100832.59;85977;1294;93142;-54
2022/10/19 04:21:19;;;;;;;;;;;;;;;10.72;89.91;100836.92;85941;1294;80930;-54
2022/10/19 04:23:28;;;;;;;;;;;;;;;10.71;89.87;100839.48;85943;1292;82388;-54
2022/10/19 04:25:36;;;;;;;;;;;;;;;10.69;89.87;100838.43;85938;1293;99416;-57
2022/10/19 04:27:46;;;;;;;;;;;;;;;10.71;89.78;100838.23;85932;1298;87709;-57
2022/10/19 04:29:53;;;;;;;;;;;;;;;10.74;89.80;100836.78;85960;1294;94271;-57
2022/10/19 04:32:00;;;;;;;;;;;;;;;10.75;89.77;100833.10;85946;1297;78845;-56
2022/10/19 04:34:07;;;;;;;;;;;;;;;10.77;89.71;100828.89;86004;1294;82466;-55
2022/10/19 04:36:14;;;;;;;;;;;;;;;10.76;89.77;100827.82;85960;1291;100156;-54
2022/10/19 04:38:22;;;;;;;;;;;;;;;10.76;89.71;100827.59;85960;1294;89387;-55
2022/10/19 04:40:29;;;;;;;;;;;;;;;10.77;89.73;100827.80;85956;1294;95682;-55
2022/10/19 04:42:36;;;;;;;;;;;;;;;10.79;89.66;100827.20;85963;1297;80763;-55
2022/10/19 04:44:44;;;;;;;;;;;;;;;10.80;89.74;100822.24;85986;1297;82527;-58
2022/10/19 04:46:51;;;;;;;;;;;;;;;10.82;89.60;100818.05;85984;1292;99858;-56
2022/10/19 04:48:59;;;;;;;;;;;;;;;10.83;89.60;100814.15;85654;1293;478435;-55
2022/10/19 04:51:07;;;;;;;;;;;;;;;10.81;89.59;100808.39;86059;1298;95506;-57
2022/10/19 04:53:18;;;;;;;;;;;;;;;10.81;89.54;100808.80;85985;1297;80822;-57
2022/10/19 04:55:24;;;;;;;;;;;;;;;10.82;89.45;100806.46;86002;1294;82164;-52
2022/10/19 04:57:33;;;;;;;;;;;;;;;10.82;89.48;100805.58;85997;1292;100180;-53
2022/10/19 04:59:40;;;;;;;;;;;;;;;10.82;89.44;100810.49;86045;1298;89043;-53
2022/10/19 05:01:47;;;;;;;;;;;;;;;10.79;89.39;100807.52;85996;1299;94320;-52
2022/10/19 05:03:57;;;;;;;;;;;;;;;10.76;89.47;100808.67;86024;1291;80632;-55
2022/10/19 05:06:05;;;;;;;;;;;;;;;10.76;89.46;100810.45;85973;1297;82677;-53
2022/10/19 05:08:12;;;;;;;;;;;;;;;10.77;89.43;100811.93;85961;1294;99108;-53
2022/10/19 05:10:19;;;;;;;;;;;;;;;10.80;89.39;100811.31;86003;1293;87762;-57
2022/10/19 05:12:27;;;;;;;;;;;;;;;10.81;89.37;100813.08;85990;1284;95141;-58
2022/10/19 05:14:36;;;;;;;;;;;;;;;10.84;89.37;100815.76;85985;1292;80557;-57
2022/10/19 05:16:43;;;;;;;;;;;;;;;10.86;89.32;100813.59;85963;1293;82592;-57
2022/10/19 05:18:52;;;;;;;;;;;;;;;10.86;89.29;100814.26;85947;1297;97372;-56
2022/10/19 05:21:05;;;;;;;;;;;;;;;10.87;89.26;100813.52;85978;1294;87620;-55
2022/10/19 05:23:12;;;;;;;;;;;;;;;10.86;89.12;100819.73;85958;1297;94390;-56
2022/10/19 05:25:19;;;;;;;;;;;;;;;10.83;89.14;100817.16;85948;1294;81550;-54
2022/10/19 05:27:26;;;;;;;;;;;;;;;10.79;89.15;100820.95;85958;1297;82513;-53
2022/10/19 05:29:34;;;;;;;;;;;;;;;10.80;89.21;100820.58;85955;1300;99509;-52
2022/10/19 05:31:42;;;;;;;;;;;;;;;10.81;89.29;100820.65;86019;1291;86306;-53
2022/10/19 05:33:49;;;;;;;;;;;;;;;10.83;89.18;100821.52;85981;1290;94882;-54
2022/10/19 05:35:56;;;;;;;;;;;;;;;10.82;89.26;100820.88;86012;1291;82165;-54
2022/10/19 05:38:04;;;;;;;;;;;;;;;10.81;89.20;100824.45;85984;1297;81225;-54
2022/10/19 05:40:13;;;;;;;;;;;;;;;10.82;89.21;100827.40;86019;1297;100089;-55
2022/10/19 05:42:21;;;;;;;;;;;;;;;10.83;89.22;100828.17;85996;1294;89884;-55
2022/10/19 05:44:28;;;;;;;;;;;;;;;10.84;89.16;100827.61;86006;1299;94161;-56
2022/10/19 05:46:35;;;;;;;;;;;;;;;10.85;89.08;100828.59;85994;1294;82595;-56
2022/10/19 05:48:44;;;;;;;;;;;;;;;10.91;89.15;100831.70;85996;1291;82982;-55
2022/10/19 05:50:55;;;;;;;;;;;;;;;10.94;89.13;100828.41;86007;1294;99225;-55
2022/10/19 05:53:05;;;;;;;;;;;;;;;10.98;89.06;100830.83;85980;1297;87151;-54
2022/10/19 05:55:13;;;;;;;;;;;;;;;11.00;89.10;100823.36;85966;1294;94773;-58
2022/10/19 05:57:20;;;;;;;;;;;;;;;11.02;89.02;100822.08;85987;1298;80380;-57
2022/10/19 05:59:28;;;;;;;;;;;;;;;11.04;88.95;100816.86;85979;1294;79938;-56
2022/10/19 06:01:35;;;;;;;;;;;;;;;11.08;88.79;100821.85;85967;1294;99045;-55
2022/10/19 06:03:42;;;;;;;;;;;;;;;11.15;88.83;100817.41;85989;1294;87506;-56
2022/10/19 06:05:50;;;;;;;;;;;;;;;11.19;88.75;100818.71;86007;1294;95312;-55
2022/10/19 06:07:57;;;;;;;;;;;;;;;11.19;88.64;100818.38;85973;1298;81384;-56
2022/10/19 06:10:05;;;;;;;;;;;;;;;11.21;88.67;100819.98;85979;1294;82098;-57
2022/10/19 06:12:12;;;;;;;;;;;;;;;11.32;88.72;100819.41;85981;1294;98276;-57
2022/10/19 06:14:21;;;;;;;;;;;;;;;11.45;88.81;100818.18;86039;1299;88461;-53
2022/10/19 06:16:30;;;;;;;;;;;;;;;11.55;88.67;100821.13;85943;1300;95702;-55
2022/10/19 06:18:37;;;;;;;;;;;;;;;11.59;88.62;100822.44;86014;1297;82006;-58
2022/10/19 06:20:48;;;;;;;;;;;;;;;11.69;88.51;100821.60;86042;1297;81713;-53
2022/10/19 06:22:56;;;;;;;;;;;;;;;11.71;88.47;100827.44;86032;1297;99291;-54
2022/10/19 06:25:07;;;;;;;;;;;;;;;11.67;88.27;100823.48;86061;1294;87248;-56
2022/10/19 06:27:14;;;;;;;;;;;;;;;11.61;88.22;100827.30;86033;1294;95620;-56
2022/10/19 06:29:22;;;;;;;;;;;;;;;11.58;88.15;100827.02;86044;1299;81190;-57
2022/10/19 06:31:30;;;;;;;;;;;;;;;11.61;88.31;100823.90;86037;1292;80949;-57
2022/10/19 06:33:39;;;;;;;;;;;;;;;11.70;88.27;100824.25;86058;1293;99371;-57
2022/10/19 06:35:47;;;;;;;;;;;;;;;11.72;88.12;100824.55;86035;1300;88742;-57
2022/10/19 06:37:57;;;;;;;;;;;;;;;11.74;87.97;100822.36;86020;1299;93665;-58
2022/10/19 06:40:05;;;;;;;;;;;;;;;11.76;87.96;100823.81;86053;1297;81377;-57
2022/10/19 06:42:12;;;;;;;;;;;;;;;11.79;87.89;100825.94;86040;1297;82606;-57
2022/10/19 06:44:21;;;;;;;;;;;;;;;11.80;87.82;100825.92;85987;1297;97855;-53
2022/10/19 06:46:32;;;;;;;;;;;;;;;11.72;87.68;100820.88;85981;1299;87800;-53
2022/10/19 06:48:43;;;;;;;;;;;;;;;11.74;87.77;100822.55;86006;1292;93802;-53
2022/10/19 06:50:58;;;;;;;;;;;;;;;11.76;87.78;100823.35;85990;1294;81525;-53
2022/10/19 06:53:04;;;;;;;;;;;;;;;11.76;87.69;100824.65;85980;1294;80348;-53
2022/10/19 06:55:13;;;;;;;;;;;;;;;11.70;87.68;100825.75;85991;1299;99958;-55
2022/10/19 06:57:22;;;;;;;;;;;;;;;11.65;87.62;100824.48;86001;1292;88381;-55
2022/10/19 06:59:30;;;;;;;;;;;;;;;11.66;87.58;100829.42;85993;1297;94198;-53
2022/10/19 07:01:37;;;;;;;;;;;;;;;11.69;87.67;100831.08;86031;1294;81942;-53
2022/10/19 07:03:44;;;;;;;;;;;;;;;11.68;87.66;100828.90;85971;1290;83317;-53
2022/10/19 07:05:56;;;;;;;;;;;;;;;11.72;87.71;100826.63;86088;1293;97519;-54
2022/10/19 07:08:07;;;;;;;;;;;;;;;11.82;87.79;100829.65;86071;1293;89045;-55
2022/10/19 07:10:14;;;;;;;;;;;;;;;11.95;87.71;100825.11;86030;1294;95324;-57
2022/10/19 07:12:20;;;;;;;;;;;;;;;12.03;87.42;100825.46;86009;1297;80596;-57
2022/10/19 07:14:30;;;;;;;;;;;;;;;12.11;87.19;100823.92;86038;1297;81309;-55
2022/10/19 07:16:37;;;;;;;;;;;;;;;12.26;87.19;100822.02;86025;1284;99755;-55
2022/10/19 07:18:45;;;;;;;;;;;;;;;12.57;87.41;100818.70;85993;1297;87691;-56
2022/10/19 07:20:58;;;;;;;;;;;;;;;13.24;88.15;100822.79;85986;1293;93823;-56
2022/10/19 07:23:05;;;;;;;;;;;;;;;14.31;87.73;100814.39;85999;1292;82512;-55
2022/10/19 07:25:14;;;;;;;;;;;;;;;15.64;86.89;100817.61;85982;1297;80496;-54
2022/10/19 07:27:22;;;;;;;;;;;;;;;16.84;85.61;100808.61;85971;1291;99593;-54
2022/10/19 07:29:28;;;;;;;;;;;;;;;17.98;82.98;100808.89;85994;1298;89293;-54
2022/10/19 07:31:39;;;;;;;;;;;;;;;17.51;81.08;100810.73;85985;1294;94593;-54
2022/10/19 07:33:53;;;;;;;;;;;;;;;16.72;80.40;100815.04;85999;1294;79862;-54
2022/10/19 07:36:03;;;;;;;;;;;;;;;15.96;79.84;100822.09;85999;1293;82882;-54
2022/10/19 07:38:10;;;;;;;;;;;;;;;15.43;79.95;100825.33;85982;1299;98545;-54
2022/10/19 07:40:19;;;;;;;;;;;;;;;15.03;79.97;100821.79;85991;1292;87449;-54
2022/10/19 07:42:29;;;;;;;;;;;;;;;14.75;79.88;100823.70;85991;1281;93478;-54
2022/10/19 07:44:36;;;;;;;;;;;;;;;14.52;80.04;100828.30;86009;1297;79293;-55
2022/10/19 07:46:43;;;;;;;;;;;;;;;14.31;80.32;100826.93;86015;1294;82449;-55
2022/10/19 07:48:55;;;;;;;;;;;;;;;14.17;80.47;100829.17;86007;1292;96524;-56
2022/10/19 07:51:08;;;;;;;;;;;;;;;14.09;80.77;100829.39;86031;1294;88929;-54
2022/10/19 07:53:16;;;;;;;;;;;;;;;14.07;80.76;100833.25;86041;1294;95696;-55
2022/10/19 07:55:23;;;;;;;;;;;;;;;14.11;80.95;100835.77;86036;1297;80234;-54
2022/10/19 07:57:30;;;;;;;;;;;;;;;14.27;80.97;100833.18;86051;1294;80448;-53
2022/10/19 07:59:37;;;;;;;;;;;;;;;14.23;80.91;100835.84;85981;1286;98769;-55
2022/10/19 08:01:44;;;;;;;;;;;;;;;14.44;81.21;100831.14;85999;1299;88568;-56
2022/10/19 08:03:57;;;;;;;;;;;;;;;14.94;80.84;100827.55;85950;1297;94120;-55
2022/10/19 08:06:05;;;;;;;;;;;;;;;14.85;80.32;100830.21;85971;1297;79264;-56
2022/10/19 08:08:12;;;;;;;;;;;;;;;14.57;80.18;100830.70;85965;1297;81957;-55
2022/10/19 08:10:21;;;;;;;;;;;;;;;14.25;80.16;100829.41;85969;1300;99614;-55
2022/10/19 08:12:29;;;;;;;;;;;;;;;14.01;80.23;100833.81;85958;1297;88679;-56
2022/10/19 08:14:36;;;;;;;;;;;;;;;13.80;80.34;100834.18;85974;1294;95058;-56
2022/10/19 08:16:44;;;;;;;;;;;;;;;13.60;80.55;100830.88;85944;1293;79161;-56
2022/10/19 08:18:52;;;;;;;;;;;;;;;13.35;80.75;100838.21;85947;1297;81758;-55
2022/10/19 08:21:01;;;;;;;;;;;;;;;13.17;80.94;100835.89;85994;1297;98229;-56
2022/10/19 08:23:09;;;;;;;;;;;;;;;13.04;81.17;100836.00;85971;1297;88825;-55
2022/10/19 08:25:16;;;;;;;;;;;;;;;12.88;81.54;100835.92;86004;1297;94276;-57
2022/10/19 08:27:23;;;;;;;;;;;;;;;12.82;81.85;100836.11;85995;1299;82221;-56
2022/10/19 08:29:32;;;;;;;;;;;;;;;12.88;82.18;100835.41;85988;1294;81130;-54
2022/10/19 08:31:40;;;;;;;;;;;;;;;12.91;82.37;100833.53;86011;1297;99138;-54
2022/10/19 08:33:49;;;;;;;;;;;;;;;12.91;82.52;100836.17;85960;1292;87834;-54
2022/10/19 08:35:56;;;;;;;;;;;;;;;12.88;82.49;100833.20;86026;1294;95363;-53
2022/10/19 08:38:06;;;;;;;;;;;;;;;12.94;82.58;100836.39;86022;1297;81910;-53
2022/10/19 08:40:18;;;;;;;;;;;;;;;12.98;82.64;100835.81;86018;1299;81938;-53
2022/10/19 08:42:29;;;;;;;;;;;;;;;13.02;82.66;100832.30;86038;1299;99704;-55
2022/10/19 08:44:53;;;;;;;;;;;;;;;12.93;82.74;100834.05;85995;1294;87252;-54
2022/10/19 08:47:07;;;;;;;;;;;;;;;12.87;82.90;100834.71;85975;1297;93784;-54
2022/10/19 08:49:19;;;;;;;;;;;;;;;12.83;82.85;100831.27;85957;1294;81921;-56
2022/10/19 08:51:27;;;;;;;;;;;;;;;12.92;83.10;100834.88;85982;1294;82846;-56
2022/10/19 08:53:40;;;;;;;;;;;;;;;12.96;83.14;100834.66;85939;1293;99154;-56
2022/10/19 08:55:59;;;;;;;;;;;;;;;12.83;83.12;100831.58;85987;1297;89443;-58
2022/10/19 08:58:16;;;;;;;;;;;;;;;12.81;83.10;100833.38;85918;1297;94601;-57
2022/10/19 09:00:35;;;;;;;;;;;;;;;12.74;83.10;100837.90;85942;1299;80185;-54
2022/10/19 09:02:57;;;;;;;;;;;;;;;12.68;83.11;100842.27;85967;1298;81338;-54
2022/10/19 09:05:10;;;;;;;;;;;;;;;12.70;83.28;100841.48;85967;1298;99697;-55
2022/10/19 09:07:26;;;;;;;;;;;;;;;12.67;83.33;100846.16;85996;1291;87450;-55
2022/10/19 09:09:36;;;;;;;;;;;;;;;12.67;83.37;100845.95;85989;1293;94504;-55
2022/10/19 09:11:46;;;;;;;;;;;;;;;12.74;83.69;100848.13;85979;1297;81947;-54
2022/10/19 09:14:00;;;;;;;;;;;;;;;12.93;83.93;100853.16;85993;1299;81469;-55
2022/10/19 09:16:11;;;;;;;;;;;;;;;13.09;83.84;100852.34;86001;1294;97999;-54
2022/10/19 09:18:22;;;;;;;;;;;;;;;13.13;83.73;100853.92;85909;1301;91045;-54
2022/10/19 09:20:33;;;;;;;;;;;;;;;13.13;83.53;100855.17;85966;1299;94833;-55
2022/10/19 09:22:42;;;;;;;;;;;;;;;13.18;83.55;100856.86;85978;1299;82078;-55
2022/10/19 09:24:52;;;;;;;;;;;;;;;13.17;83.60;100854.67;85979;1297;82516;-54
2022/10/19 09:27:03;;;;;;;;;;;;;;;13.26;83.70;100859.05;85954;1297;99115;-54
2022/10/19 09:29:17;;;;;;;;;;;;;;;13.40;83.80;100861.52;85963;1294;88052;-56
2022/10/19 09:31:29;;;;;;;;;;;;;;;13.55;83.76;100859.39;85948;1294;93592;-57
2022/10/19 09:33:39;;;;;;;;;;;;;;;13.67;83.59;100862.88;85972;1294;80537;-55
2022/10/19 09:35:47;;;;;;;;;;;;;;;13.66;83.21;100861.55;85984;1297;83340;-54
2022/10/19 09:37:54;;;;;;;;;;;;;;;13.68;83.15;100864.11;85963;1294;99060;-54
2022/10/19 09:40:01;;;;;;;;;;;;;;;13.69;82.97;100867.20;86011;1292;88498;-56
2022/10/19 09:42:13;;;;;;;;;;;;;;;13.90;83.21;100870.09;85994;1297;95931;-56
2022/10/19 09:44:20;;;;;;;;;;;;;;;14.14;83.12;100867.86;86016;1299;80200;-55
2022/10/19 09:46:41;;;;;;;;;;;;;;;14.38;83.25;100865.00;86076;1297;83004;-54
2022/10/19 09:48:52;;;;;;;;;;;;;;;14.53;82.77;100870.95;86051;1297;97580;-55
2022/10/19 09:51:01;;;;;;;;;;;;;;;14.49;82.35;100869.73;86103;1297;87492;-58
2022/10/19 09:53:16;;;;;;;;;;;;;;;14.46;82.26;100871.44;86021;1291;95544;-57
2022/10/19 09:55:35;;;;;;;;;;;;;;;14.43;81.94;100870.38;86013;1297;78762;-57
2022/10/19 09:57:45;;;;;;;;;;;;;;;13.96;80.73;100894.05;86010;1291;82186;-58
2022/10/19 09:59:55;;;;;;;;;;;;;;;13.37;78.81;100911.70;86011;1297;98414;-58
2022/10/19 10:02:22;;;;;;;;;;;;;;;12.86;78.63;100915.84;85996;1297;89132;-57
2022/10/19 10:04:35;;;;;;;;;;;;;;;12.50;79.35;100918.63;85985;1297;94625;-54
2022/10/19 10:06:43;;;;;;;;;;;;;;;12.34;79.62;100921.86;85972;1299;81132;-54
2022/10/19 10:08:57;;;;;;;;;;;;;;;12.20;79.54;100922.96;85987;1297;83175;-54
2022/10/19 10:11:11;;;;;;;;;;;;;;;12.03;79.77;100923.20;85983;1297;99596;-57
2022/10/19 10:13:21;;;;;;;;;;;;;;;11.88;79.66;100922.27;85993;1294;89087;-58
2022/10/19 10:15:30;;;;;;;;;;;;;;;11.84;79.79;100925.70;86006;1297;94313;-56
2022/10/19 10:17:37;;;;;;;;;;;;;;;11.73;79.83;100921.75;86009;1298;81567;-56
2022/10/19 10:20:04;;;;;;;;;;;;;;;11.73;79.97;100920.90;86013;1297;80801;-55
2022/10/19 10:22:23;;;;;;;;;;;;;;;11.73;80.10;100921.78;85979;1294;98249;-57
2022/10/19 10:24:33;;;;;;;;;;;;;;;11.82;80.03;100915.47;86021;1297;87126;-58
2022/10/19 10:26:58;;;;;;;;;;;;;;;11.87;80.14;100916.05;85996;1300;95822;-59
2022/10/19 10:29:16;;;;;;;;;;;;;;;12.04;79.59;100922.71;86024;1297;81304;-56
2022/10/19 10:31:26;;;;;;;;;;;;;;;12.15;79.70;100919.92;86005;1299;82670;-56
2022/10/19 10:33:38;;;;;;;;;;;;;;;12.18;79.62;100922.05;86014;1294;100155;-55
2022/10/19 10:35:52;;;;;;;;;;;;;;;12.19;79.55;100920.27;86015;1299;87944;-56
2022/10/19 10:38:12;;;;;;;;;;;;;;;12.16;79.54;100922.98;85981;1299;95130;-57
2022/10/19 10:40:24;;;;;;;;;;;;;;;12.35;79.78;100913.40;85991;1300;79655;-54
2022/10/19 10:42:36;;;;;;;;;;;;;;;12.58;79.47;100917.61;85990;1297;81654;-54
2022/10/19 10:44:49;;;;;;;;;;;;;;;12.65;79.02;100912.33;86013;1294;100072;-54
2022/10/19 10:47:11;;;;;;;;;;;;;;;12.61;77.86;100913.06;86010;1294;88970;-54
2022/10/19 10:49:23;;;;;;;;;;;;;;;12.46;77.51;100915.25;85987;1297;93978;-60
2022/10/19 10:51:38;;;;;;;;;;;;;;;12.38;77.47;100912.24;85992;1298;81270;-58
2022/10/19 10:53:48;;;;;;;;;;;;;;;12.39;78.11;100912.31;85968;1297;81757;-58
2022/10/19 10:55:58;;;;;;;;;;;;;;;12.55;78.34;100916.20;86059;1294;97197;-59
2022/10/19 10:58:16;;;;;;;;;;;;;;;12.70;78.43;100916.02;86033;1293;87442;-59
2022/10/19 11:00:25;;;;;;;;;;;;;;;13.01;78.67;100915.96;86062;1292;93761;-55
2022/10/19 11:02:40;;;;;;;;;;;;;;;13.22;78.74;100914.36;85989;1297;81775;-56
2022/10/19 11:04:52;;;;;;;;;;;;;;;13.43;78.73;100912.55;86015;1297;81700;-56
2022/10/19 11:07:01;;;;;;;;;;;;;;;13.65;78.65;100917.23;85974;1295;98333;-56